sensor_id;sensor_type;location;lat;lon;timestamp;pressure;altitude;pressure_sealevel;temperature;humidity
10958;BME280;5531;42.570;23.676;2023-03-21T00:01:17;91866.41;;;9.72;76.89
10958;BME280;5531;42.570;23.676;2023-03-21T00:03:47;91867.66;;;9.77;75.93
10958;BME280;5531;42.570;23.676;2023-03-21T00:06:19;91856.03;;;9.93;76.20
10958;BME280;5531;42.570;23.676;2023-03-21T00:08:48;91858.03;;;9.97;75.23
10958;BME280;5531;42.570;23.676;2023-03-21T00:11:17;91864.34;;;10.09;74.53
10958;BME280;5531;42.570;23.676;2023-03-21T00:13:46;91865.97;;;10.17;74.68
10958;BME280;5531;42.570;23.676;2023-03-21T00:16:17;91867.63;;;10.32;74.18
10958;BME280;5531;42.570;23.676;2023-03-21T00:18:48;91859.22;;;10.50;73.79
10958;BME280;5531;42.570;23.676;2023-03-21T00:21:21;91864.25;;;10.51;75.01
10958;BME280;5531;42.570;23.676;2023-03-21T00:23:53;91853.56;;;10.46;74.55
10958;BME280;5531;42.570;23.676;2023-03-21T00:26:22;91852.75;;;10.52;73.52
10958;BME280;5531;42.570;23.676;2023-03-21T00:28:51;91846.50;;;10.33;74.41
10958;BME280;5531;42.570;23.676;2023-03-21T00:31:21;91838.94;;;10.03;75.84
10958;BME280;5531;42.570;23.676;2023-03-21T00:33:50;91835.13;;;9.99;76.53
10958;BME280;5531;42.570;23.676;2023-03-21T00:36:21;91833.66;;;9.77;76.77
10958;BME280;5531;42.570;23.676;2023-03-21T00:38:51;91822.88;;;9.58;78.07
10958;BME280;5531;42.570;23.676;2023-03-21T00:41:20;91820.84;;;9.47;79.46
10958;BME280;5531;42.570;23.676;2023-03-21T00:43:49;91823.00;;;9.36;80.45
10958;BME280;5531;42.570;23.676;2023-03-21T00:46:20;91816.94;;;9.29;80.73
10958;BME280;5531;42.570;23.676;2023-03-21T00:48:49;91812.31;;;9.31;80.83
10958;BME280;5531;42.570;23.676;2023-03-21T00:51:23;91794.03;;;9.31;81.49
10958;BME280;5531;42.570;23.676;2023-03-21T00:53:54;91803.28;;;9.27;81.11
10958;BME280;5531;42.570;23.676;2023-03-21T00:56:23;91807.69;;;9.27;81.05
10958;BME280;5531;42.570;23.676;2023-03-21T00:58:52;91806.31;;;9.31;80.60
10958;BME280;5531;42.570;23.676;2023-03-21T01:01:21;91813.78;;;9.41;80.21
10958;BME280;5531;42.570;23.676;2023-03-21T01:03:51;91823.91;;;9.57;79.77
10958;BME280;5531;42.570;23.676;2023-03-21T01:06:30;91827.56;;;9.69;78.01
10958;BME280;5531;42.570;23.676;2023-03-21T01:09:04;91826.56;;;9.70;77.80
10958;BME280;5531;42.570;23.676;2023-03-21T01:11:34;91825.59;;;9.78;77.24
10958;BME280;5531;42.570;23.676;2023-03-21T01:14:03;91829.63;;;9.81;77.63
10958;BME280;5531;42.570;23.676;2023-03-21T01:16:32;91832.06;;;9.89;77.91
10958;BME280;5531;42.570;23.676;2023-03-21T01:19:02;91835.72;;;10.01;78.17
10958;BME280;5531;42.570;23.676;2023-03-21T01:21:34;91837.56;;;10.14;77.49
10958;BME280;5531;42.570;23.676;2023-03-21T01:24:03;91828.53;;;10.23;76.42
10958;BME280;5531;42.570;23.676;2023-03-21T01:26:33;91830.56;;;10.35;75.51
10958;BME280;5531;42.570;23.676;2023-03-21T01:29:02;91831.41;;;10.42;75.58
10958;BME280;5531;42.570;23.676;2023-03-21T01:31:32;91831.22;;;10.50;75.02
10958;BME280;5531;42.570;23.676;2023-03-21T01:34:01;91833.44;;;10.47;74.96
10958;BME280;5531;42.570;23.676;2023-03-21T01:36:30;91832.19;;;10.42;75.39
10958;BME280;5531;42.570;23.676;2023-03-21T01:39:02;91822.94;;;10.33;75.15
10958;BME280;5531;42.570;23.676;2023-03-21T01:41:33;91823.25;;;10.17;76.10
10958;BME280;5531;42.570;23.676;2023-03-21T01:44:02;91824.09;;;10.11;76.69
10958;BME280;5531;42.570;23.676;2023-03-21T01:46:38;91817.41;;;9.95;76.85
10958;BME280;5531;42.570;23.676;2023-03-21T01:49:11;91818.13;;;9.75;77.28
10958;BME280;5531;42.570;23.676;2023-03-21T01:51:46;91823.91;;;9.57;78.24
10958;BME280;5531;42.570;23.676;2023-03-21T01:54:21;91814.59;;;9.48;78.61
10958;BME280;5531;42.570;23.676;2023-03-21T01:56:55;91810.75;;;9.37;79.50
10958;BME280;5531;42.570;23.676;2023-03-21T01:59:28;91808.75;;;9.39;79.25
10958;BME280;5531;42.570;23.676;2023-03-21T02:02:02;91800.88;;;9.32;79.98
10958;BME280;5531;42.570;23.676;2023-03-21T02:04:32;91800.16;;;9.10;81.03
10958;BME280;5531;42.570;23.676;2023-03-21T02:07:05;91804.59;;;9.10;81.07
10958;BME280;5531;42.570;23.676;2023-03-21T02:09:42;91802.03;;;9.23;80.94
10958;BME280;5531;42.570;23.676;2023-03-21T02:12:12;91807.41;;;9.15;81.40
10958;BME280;5531;42.570;23.676;2023-03-21T02:14:45;91805.78;;;9.14;81.17
10958;BME280;5531;42.570;23.676;2023-03-21T02:17:19;91804.97;;;9.07;81.16
10958;BME280;5531;42.570;23.676;2023-03-21T02:23:23;91811.28;;;8.91;82.53
10958;BME280;5531;42.570;23.676;2023-03-21T02:26:34;91810.84;;;8.80;82.70
10958;BME280;5531;42.570;23.676;2023-03-21T02:29:16;91811.44;;;8.83;83.13
10958;BME280;5531;42.570;23.676;2023-03-21T02:31:57;91812.72;;;8.93;82.95
10958;BME280;5531;42.570;23.676;2023-03-21T02:34:48;91808.16;;;9.02;82.17
10958;BME280;5531;42.570;23.676;2023-03-21T02:37:29;91807.56;;;9.07;82.72
10958;BME280;5531;42.570;23.676;2023-03-21T02:40:06;91796.13;;;9.08;82.85
10958;BME280;5531;42.570;23.676;2023-03-21T02:42:44;91794.53;;;9.13;82.25
10958;BME280;5531;42.570;23.676;2023-03-21T02:45:20;91795.47;;;8.99;82.66
10958;BME280;5531;42.570;23.676;2023-03-21T02:47:52;91791.97;;;8.85;83.91
10958;BME280;5531;42.570;23.676;2023-03-21T02:50:26;91786.91;;;8.77;83.75
10958;BME280;5531;42.570;23.676;2023-03-21T02:53:03;91787.75;;;8.84;83.47
10958;BME280;5531;42.570;23.676;2023-03-21T02:55:35;91794.63;;;8.92;83.48
10958;BME280;5531;42.570;23.676;2023-03-21T02:58:07;91797.66;;;8.95;82.85
10958;BME280;5531;42.570;23.676;2023-03-21T03:00:37;91802.34;;;9.07;82.32
10958;BME280;5531;42.570;23.676;2023-03-21T03:03:07;91801.41;;;9.14;82.14
10958;BME280;5531;42.570;23.676;2023-03-21T03:05:41;91801.25;;;9.29;81.97
10958;BME280;5531;42.570;23.676;2023-03-21T03:08:27;91791.63;;;9.36;81.38
10958;BME280;5531;42.570;23.676;2023-03-21T03:11:10;91792.47;;;9.44;81.13
10958;BME280;5531;42.570;23.676;2023-03-21T03:13:58;91790.84;;;9.43;80.78
10958;BME280;5531;42.570;23.676;2023-03-21T03:16:41;91791.63;;;9.36;81.30
10958;BME280;5531;42.570;23.676;2023-03-21T03:19:17;91791.22;;;9.33;81.10
10958;BME280;5531;42.570;23.676;2023-03-21T03:21:57;91786.19;;;9.31;81.85
10958;BME280;5531;42.570;23.676;2023-03-21T03:24:30;91790.25;;;9.41;80.93
10958;BME280;5531;42.570;23.676;2023-03-21T03:27:05;91797.69;;;9.37;80.92
10958;BME280;5531;42.570;23.676;2023-03-21T03:29:39;91786.53;;;9.22;81.48
10958;BME280;5531;42.570;23.676;2023-03-21T03:32:12;91795.72;;;9.11;81.32
10958;BME280;5531;42.570;23.676;2023-03-21T03:34:47;91799.22;;;9.25;81.12
10958;BME280;5531;42.570;23.676;2023-03-21T03:37:22;91800.88;;;9.32;79.86
10958;BME280;5531;42.570;23.676;2023-03-21T03:40:00;91785.59;;;9.36;80.76
10958;BME280;5531;42.570;23.676;2023-03-21T03:42:35;91788.63;;;9.40;80.27
10958;BME280;5531;42.570;23.676;2023-03-21T03:45:06;91783.75;;;9.30;81.30
10958;BME280;5531;42.570;23.676;2023-03-21T03:47:40;91787.13;;;9.17;81.41
10958;BME280;5531;42.570;23.676;2023-03-21T03:50:14;91776.03;;;9.08;81.59
10958;BME280;5531;42.570;23.676;2023-03-21T03:52:48;91772.78;;;8.99;82.33
10958;BME280;5531;42.570;23.676;2023-03-21T03:55:23;91772.53;;;8.94;82.49
10958;BME280;5531;42.570;23.676;2023-03-21T03:58:00;91767.69;;;8.91;82.09
10958;BME280;5531;42.570;23.676;2023-03-21T04:00:32;91775.22;;;8.73;83.54
10958;BME280;5531;42.570;23.676;2023-03-21T04:03:01;91781.31;;;8.80;82.66
10958;BME280;5531;42.570;23.676;2023-03-21T04:05:32;91783.31;;;8.85;82.73
10958;BME280;5531;42.570;23.676;2023-03-21T04:08:01;91780.72;;;8.85;82.20
10958;BME280;5531;42.570;23.676;2023-03-21T04:10:34;91783.66;;;8.75;82.66
10958;BME280;5531;42.570;23.676;2023-03-21T04:13:03;91790.22;;;8.64;83.17
10958;BME280;5531;42.570;23.676;2023-03-21T04:15:32;91789.06;;;8.73;82.90
10958;BME280;5531;42.570;23.676;2023-03-21T04:18:01;91784.69;;;8.74;82.98
10958;BME280;5531;42.570;23.676;2023-03-21T04:20:31;91784.81;;;8.66;82.96
10958;BME280;5531;42.570;23.676;2023-03-21T04:23:00;91784.44;;;8.69;83.37
10958;BME280;5531;42.570;23.676;2023-03-21T04:25:29;91785.34;;;8.54;83.33
10958;BME280;5531;42.570;23.676;2023-03-21T04:28:00;91792.16;;;8.55;83.16
10958;BME280;5531;42.570;23.676;2023-03-21T04:30:30;91786.75;;;8.57;83.43
10958;BME280;5531;42.570;23.676;2023-03-21T04:32:59;91788.84;;;8.68;83.12
10958;BME280;5531;42.570;23.676;2023-03-21T04:35:28;91790.13;;;8.79;82.83
10958;BME280;5531;42.570;23.676;2023-03-21T04:37:58;91789.75;;;8.82;82.05
10958;BME280;5531;42.570;23.676;2023-03-21T04:40:28;91794.44;;;8.93;81.40
10958;BME280;5531;42.570;23.676;2023-03-21T04:42:57;91796.91;;;9.02;81.19
10958;BME280;5531;42.570;23.676;2023-03-21T04:45:28;91792.50;;;9.09;80.47
10958;BME280;5531;42.570;23.676;2023-03-21T04:47:57;91792.72;;;9.14;80.24
10958;BME280;5531;42.570;23.676;2023-03-21T04:50:26;91793.38;;;9.16;80.21
10958;BME280;5531;42.570;23.676;2023-03-21T04:52:56;91793.56;;;9.14;80.97
10958;BME280;5531;42.570;23.676;2023-03-21T04:55:25;91796.59;;;9.18;80.19
10958;BME280;5531;42.570;23.676;2023-03-21T04:57:56;91787.78;;;9.26;80.21
10958;BME280;5531;42.570;23.676;2023-03-21T05:00:28;91791.03;;;9.34;79.63
10958;BME280;5531;42.570;23.676;2023-03-21T05:03:02;91788.63;;;9.40;78.88
10958;BME280;5531;42.570;23.676;2023-03-21T05:05:34;91791.84;;;9.42;79.11
10958;BME280;5531;42.570;23.676;2023-03-21T05:08:04;91792.09;;;9.47;78.92
10958;BME280;5531;42.570;23.676;2023-03-21T05:10:33;91790.69;;;9.51;79.07
10958;BME280;5531;42.570;23.676;2023-03-21T05:13:02;91793.88;;;9.46;79.39
10958;BME280;5531;42.570;23.676;2023-03-21T05:15:34;91789.91;;;9.50;80.79
10958;BME280;5531;42.570;23.676;2023-03-21T05:18:03;91793.09;;;9.52;80.34
10958;BME280;5531;42.570;23.676;2023-03-21T05:20:36;91787.69;;;9.54;79.69
10958;BME280;5531;42.570;23.676;2023-03-21T05:23:07;91796.16;;;9.63;78.25
10958;BME280;5531;42.570;23.676;2023-03-21T05:25:38;91791.78;;;9.70;77.68
10958;BME280;5531;42.570;23.676;2023-03-21T05:28:07;91799.63;;;9.77;76.46
10958;BME280;5531;42.570;23.676;2023-03-21T05:30:39;91795.63;;;9.87;76.42
10958;BME280;5531;42.570;23.676;2023-03-21T05:33:08;91794.25;;;9.98;74.92
10958;BME280;5531;42.570;23.676;2023-03-21T05:35:37;91796.28;;;10.09;74.90
10958;BME280;5531;42.570;23.676;2023-03-21T05:38:06;91788.63;;;10.08;74.60
10958;BME280;5531;42.570;23.676;2023-03-21T05:40:35;91793.88;;;10.08;74.40
10958;BME280;5531;42.570;23.676;2023-03-21T05:43:04;91800.91;;;10.07;74.27
10958;BME280;5531;42.570;23.676;2023-03-21T05:45:33;91803.28;;;9.96;76.38
10958;BME280;5531;42.570;23.676;2023-03-21T05:48:05;91798.22;;;9.87;76.38
10958;BME280;5531;42.570;23.676;2023-03-21T05:50:34;91795.81;;;9.86;75.83
10958;BME280;5531;42.570;23.676;2023-03-21T05:53:03;91788.19;;;9.84;75.58
10958;BME280;5531;42.570;23.676;2023-03-21T05:55:32;91787.78;;;9.87;76.29
10958;BME280;5531;42.570;23.676;2023-03-21T05:58:01;91787.00;;;9.94;75.77
10958;BME280;5531;42.570;23.676;2023-03-21T06:00:30;91786.41;;;9.98;75.38
10958;BME280;5531;42.570;23.676;2023-03-21T06:02:59;91783.97;;;10.03;75.79
10958;BME280;5531;42.570;23.676;2023-03-21T06:05:31;91778.56;;;10.12;75.48
10958;BME280;5531;42.570;23.676;2023-03-21T06:08:00;91779.78;;;10.29;74.43
10958;BME280;5531;42.570;23.676;2023-03-21T06:10:29;91783.03;;;10.38;74.80
10958;BME280;5531;42.570;23.676;2023-03-21T06:12:58;91782.66;;;10.41;75.36
10958;BME280;5531;42.570;23.676;2023-03-21T06:15:27;91787.69;;;10.49;73.43
10958;BME280;5531;42.570;23.676;2023-03-21T06:17:56;91777.19;;;10.56;72.51
10958;BME280;5531;42.570;23.676;2023-03-21T06:20:25;91771.94;;;10.62;71.44
10958;BME280;5531;42.570;23.676;2023-03-21T06:22:57;91770.16;;;10.63;72.20
10958;BME280;5531;42.570;23.676;2023-03-21T06:25:26;91775.00;;;10.66;71.91
10958;BME280;5531;42.570;23.676;2023-03-21T06:27:55;91771.34;;;10.67;71.95
10958;BME280;5531;42.570;23.676;2023-03-21T06:30:24;91768.72;;;10.74;73.13
10958;BME280;5531;42.570;23.676;2023-03-21T06:32:53;91773.97;;;10.74;73.54
10958;BME280;5531;42.570;23.676;2023-03-21T06:35:22;91768.13;;;10.65;74.36
10958;BME280;5531;42.570;23.676;2023-03-21T06:37:51;91771.34;;;10.67;74.80
10958;BME280;5531;42.570;23.676;2023-03-21T06:40:25;91774.16;;;10.72;75.70
10958;BME280;5531;42.570;23.676;2023-03-21T06:42:54;91775.19;;;10.64;76.07
10958;BME280;5531;42.570;23.676;2023-03-21T06:45:23;91767.72;;;10.68;74.44
10958;BME280;5531;42.570;23.676;2023-03-21T06:47:53;91779.63;;;10.71;74.17
10958;BME280;5531;42.570;23.676;2023-03-21T06:50:22;91782.03;;;10.79;74.45
10958;BME280;5531;42.570;23.676;2023-03-21T06:52:51;91780.38;;;10.98;72.39
10958;BME280;5531;42.570;23.676;2023-03-21T06:55:25;91776.31;;;11.15;71.80
10958;BME280;5531;42.570;23.676;2023-03-21T06:57:55;91780.56;;;11.16;71.86
10958;BME280;5531;42.570;23.676;2023-03-21T07:00:25;91785.16;;;11.34;72.60
10958;BME280;5531;42.570;23.676;2023-03-21T07:02:54;91787.72;;;11.48;72.60
10958;BME280;5531;42.570;23.676;2023-03-21T07:05:24;91781.88;;;11.39;72.52
10958;BME280;5531;42.570;23.676;2023-03-21T07:07:53;91789.09;;;11.64;69.41
10958;BME280;5531;42.570;23.676;2023-03-21T07:10:24;91796.50;;;11.73;67.74
10958;BME280;5531;42.570;23.676;2023-03-21T07:12:54;91796.06;;;11.83;68.09
10958;BME280;5531;42.570;23.676;2023-03-21T07:15:26;91798.44;;;11.98;66.39
10958;BME280;5531;42.570;23.676;2023-03-21T07:17:55;91807.28;;;12.04;66.25
10958;BME280;5531;42.570;23.676;2023-03-21T07:20:24;91810.03;;;12.16;67.12
10958;BME280;5531;42.570;23.676;2023-03-21T07:22:53;91808.34;;;11.96;66.58
10958;BME280;5531;42.570;23.676;2023-03-21T07:25:25;91806.47;;;12.03;66.98
10958;BME280;5531;42.570;23.676;2023-03-21T07:27:54;91808.28;;;12.09;67.54
10958;BME280;5531;42.570;23.676;2023-03-21T07:30:24;91805.41;;;12.18;66.23
10958;BME280;5531;42.570;23.676;2023-03-21T07:32:53;91806.69;;;12.40;65.39
10958;BME280;5531;42.570;23.676;2023-03-21T07:35:22;91804.03;;;12.40;64.96
10958;BME280;5531;42.570;23.676;2023-03-21T07:37:51;91802.44;;;12.64;65.21
10958;BME280;5531;42.570;23.676;2023-03-21T07:40:20;91805.41;;;12.75;63.70
10958;BME280;5531;42.570;23.676;2023-03-21T07:42:52;91796.66;;;12.81;63.94
10958;BME280;5531;42.570;23.676;2023-03-21T07:45:21;91798.19;;;12.89;62.86
10958;BME280;5531;42.570;23.676;2023-03-21T07:47:52;91799.75;;;12.96;62.85
10958;BME280;5531;42.570;23.676;2023-03-21T07:50:21;91801.25;;;13.11;60.47
10958;BME280;5531;42.570;23.676;2023-03-21T07:52:50;91796.19;;;13.09;61.18
10958;BME280;5531;42.570;23.676;2023-03-21T07:55:19;91799.31;;;12.99;60.69
10958;BME280;5531;42.570;23.676;2023-03-21T07:57:52;91790.88;;;12.97;59.97
10958;BME280;5531;42.570;23.676;2023-03-21T08:00:22;91789.81;;;12.98;60.80
10958;BME280;5531;42.570;23.676;2023-03-21T08:02:53;91790.88;;;12.97;60.34
10958;BME280;5531;42.570;23.676;2023-03-21T08:05:24;91790.44;;;13.00;62.40
10958;BME280;5531;42.570;23.676;2023-03-21T08:07:53;91797.13;;;12.96;61.36
10958;BME280;5531;42.570;23.676;2023-03-21T08:10:23;91792.38;;;13.05;61.05
10958;BME280;5531;42.570;23.676;2023-03-21T08:12:54;91793.84;;;13.01;60.65
10958;BME280;5531;42.570;23.676;2023-03-21T08:15:23;91791.88;;;12.96;60.83
10958;BME280;5531;42.570;23.676;2023-03-21T08:17:53;91795.28;;;12.97;60.87
10958;BME280;5531;42.570;23.676;2023-03-21T08:20:22;91796.06;;;13.04;61.28
10958;BME280;5531;42.570;23.676;2023-03-21T08:22:51;91809.28;;;13.16;61.53
10958;BME280;5531;42.570;23.676;2023-03-21T08:25:21;91808.00;;;13.25;61.27
10958;BME280;5531;42.570;23.676;2023-03-21T08:27:50;91819.47;;;13.31;60.36
10958;BME280;5531;42.570;23.676;2023-03-21T08:30:24;91806.41;;;13.43;61.40
10958;BME280;5531;42.570;23.676;2023-03-21T08:32:56;91805.31;;;13.50;60.22
10958;BME280;5531;42.570;23.676;2023-03-21T08:35:26;91801.91;;;13.50;59.26
10958;BME280;5531;42.570;23.676;2023-03-21T08:37:56;91798.31;;;13.44;59.25
10958;BME280;5531;42.570;23.676;2023-03-21T08:40:26;91801.44;;;13.34;58.37
10958;BME280;5531;42.570;23.676;2023-03-21T08:42:55;91797.34;;;13.38;60.08
10958;BME280;5531;42.570;23.676;2023-03-21T08:45:26;91805.41;;;13.44;59.07
10958;BME280;5531;42.570;23.676;2023-03-21T08:47:55;91808.59;;;13.46;59.38
10958;BME280;5531;42.570;23.676;2023-03-21T08:50:26;91806.38;;;13.49;59.52
10958;BME280;5531;42.570;23.676;2023-03-21T08:52:56;91805.19;;;13.45;59.63
10958;BME280;5531;42.570;23.676;2023-03-21T08:55:25;91802.97;;;13.42;59.54
10958;BME280;5531;42.570;23.676;2023-03-21T08:57:55;91800.63;;;13.52;59.44
10958;BME280;5531;42.570;23.676;2023-03-21T09:00:27;91809.34;;;13.53;59.45
10958;BME280;5531;42.570;23.676;2023-03-21T09:02:56;91801.31;;;13.48;59.23
10958;BME280;5531;42.570;23.676;2023-03-21T09:05:26;91791.53;;;13.36;60.00
10958;BME280;5531;42.570;23.676;2023-03-21T09:07:55;91798.16;;;13.39;60.18
10958;BME280;5531;42.570;23.676;2023-03-21T09:10:26;91799.50;;;13.23;59.49
10958;BME280;5531;42.570;23.676;2023-03-21T09:12:55;91803.53;;;13.26;60.80
10958;BME280;5531;42.570;23.676;2023-03-21T09:15:27;91793.81;;;13.26;60.96
10958;BME280;5531;42.570;23.676;2023-03-21T09:17:57;91783.06;;;13.28;61.41
10958;BME280;5531;42.570;23.676;2023-03-21T09:20:38;91784.31;;;13.25;60.32
10958;BME280;5531;42.570;23.676;2023-03-21T09:23:08;91784.91;;;13.27;60.65
10958;BME280;5531;42.570;23.676;2023-03-21T09:25:38;91780.00;;;13.31;60.70
10958;BME280;5531;42.570;23.676;2023-03-21T09:28:07;91777.94;;;13.40;58.79
10958;BME280;5531;42.570;23.676;2023-03-21T09:30:38;91774.03;;;13.42;59.93
10958;BME280;5531;42.570;23.676;2023-03-21T09:33:09;91775.66;;;13.43;59.56
10958;BME280;5531;42.570;23.676;2023-03-21T09:35:44;91777.69;;;13.41;59.28
10958;BME280;5531;42.570;23.676;2023-03-21T09:38:12;91775.78;;;13.48;59.51
10958;BME280;5531;42.570;23.676;2023-03-21T09:40:51;91761.63;;;13.49;58.47
10958;BME280;5531;42.570;23.676;2023-03-21T09:43:35;91760.28;;;13.59;59.39
10958;BME280;5531;42.570;23.676;2023-03-21T09:46:14;91758.53;;;13.71;58.88
10958;BME280;5531;42.570;23.676;2023-03-21T09:48:49;91757.56;;;13.84;58.22
10958;BME280;5531;42.570;23.676;2023-03-21T09:51:25;91760.31;;;13.89;57.50
10958;BME280;5531;42.570;23.676;2023-03-21T09:53:56;91753.94;;;13.97;58.09
10958;BME280;5531;42.570;23.676;2023-03-21T09:56:28;91755.22;;;14.06;56.42
10958;BME280;5531;42.570;23.676;2023-03-21T09:58:59;91748.41;;;14.17;56.94
10958;BME280;5531;42.570;23.676;2023-03-21T10:01:33;91748.78;;;14.32;57.11
10958;BME280;5531;42.570;23.676;2023-03-21T10:04:10;91749.84;;;14.43;55.98
10958;BME280;5531;42.570;23.676;2023-03-21T10:06:42;91744.91;;;14.58;54.72
10958;BME280;5531;42.570;23.676;2023-03-21T10:09:14;91748.19;;;14.60;54.66
10958;BME280;5531;42.570;23.676;2023-03-21T10:11:50;91735.69;;;14.68;54.85
10958;BME280;5531;42.570;23.676;2023-03-21T10:14:26;91728.22;;;14.76;54.58
10958;BME280;5531;42.570;23.676;2023-03-21T10:17:01;91728.81;;;14.90;54.04
10958;BME280;5531;42.570;23.676;2023-03-21T10:19:33;91711.28;;;14.84;55.46
10958;BME280;5531;42.570;23.676;2023-03-21T10:22:02;91708.28;;;14.80;56.34
10958;BME280;5531;42.570;23.676;2023-03-21T10:24:32;91698.56;;;14.93;56.05
10958;BME280;5531;42.570;23.676;2023-03-21T10:27:03;91698.66;;;15.10;55.82
10958;BME280;5531;42.570;23.676;2023-03-21T10:29:37;91709.16;;;15.33;54.50
10958;BME280;5531;42.570;23.676;2023-03-21T10:32:14;91723.47;;;15.49;52.59
10958;BME280;5531;42.570;23.676;2023-03-21T10:34:47;91721.38;;;15.63;52.68
10958;BME280;5531;42.570;23.676;2023-03-21T10:37:16;91729.50;;;15.73;49.81
10958;BME280;5531;42.570;23.676;2023-03-21T10:39:47;91736.69;;;15.90;50.32
10958;BME280;5531;42.570;23.676;2023-03-21T10:42:19;91726.75;;;15.80;49.47
10958;BME280;5531;42.570;23.676;2023-03-21T10:44:51;91721.22;;;15.82;49.78
10958;BME280;5531;42.570;23.676;2023-03-21T10:47:25;91713.94;;;15.89;50.33
10958;BME280;5531;42.570;23.676;2023-03-21T10:49:56;91707.53;;;15.85;50.08
10958;BME280;5531;42.570;23.676;2023-03-21T10:52:29;91710.75;;;15.75;50.43
10958;BME280;5531;42.570;23.676;2023-03-21T10:55:07;91707.94;;;15.65;50.26
10958;BME280;5531;42.570;23.676;2023-03-21T10:57:37;91701.28;;;15.62;51.84
10958;BME280;5531;42.570;23.676;2023-03-21T11:00:10;91708.13;;;15.75;50.77
10958;BME280;5531;42.570;23.676;2023-03-21T11:02:47;91701.22;;;15.74;50.30
10958;BME280;5531;42.570;23.676;2023-03-21T11:05:20;91693.31;;;15.74;50.91
10958;BME280;5531;42.570;23.676;2023-03-21T11:07:58;91689.16;;;15.90;53.28
10958;BME280;5531;42.570;23.676;2023-03-21T11:10:31;91693.19;;;16.09;50.66
10958;BME280;5531;42.570;23.676;2023-03-21T11:13:04;91690.63;;;16.15;51.61
10958;BME280;5531;42.570;23.676;2023-03-21T11:15:41;91690.13;;;16.01;50.54
10958;BME280;5531;42.570;23.676;2023-03-21T11:18:18;91692.81;;;15.89;50.57
10958;BME280;5531;42.570;23.676;2023-03-21T11:20:52;91686.81;;;15.93;50.49
10958;BME280;5531;42.570;23.676;2023-03-21T11:23:26;91689.00;;;15.97;51.84
10958;BME280;5531;42.570;23.676;2023-03-21T11:25:58;91677.59;;;15.79;51.72
10958;BME280;5531;42.570;23.676;2023-03-21T11:28:32;91676.16;;;15.88;51.29
10958;BME280;5531;42.570;23.676;2023-03-21T11:31:05;91680.44;;;15.89;50.04
10958;BME280;5531;42.570;23.676;2023-03-21T11:33:40;91683.84;;;15.90;49.87
10958;BME280;5531;42.570;23.676;2023-03-21T11:36:30;91677.78;;;15.89;49.94
10958;BME280;5531;42.570;23.676;2023-03-21T11:39:14;91679.50;;;15.84;50.23
10958;BME280;5531;42.570;23.676;2023-03-21T11:41:51;91670.09;;;15.88;51.20
10958;BME280;5531;42.570;23.676;2023-03-21T11:44:30;91662.63;;;15.85;51.29
10958;BME280;5531;42.570;23.676;2023-03-21T11:46:59;91655.81;;;15.60;51.16
10958;BME280;5531;42.570;23.676;2023-03-21T11:49:31;91654.25;;;15.47;52.25
10958;BME280;5531;42.570;23.676;2023-03-21T11:52:13;91651.84;;;15.46;51.99
10958;BME280;5531;42.570;23.676;2023-03-21T11:55:04;91653.59;;;15.40;52.07
10958;BME280;5531;42.570;23.676;2023-03-21T11:57:38;91655.66;;;15.38;52.44
10958;BME280;5531;42.570;23.676;2023-03-21T12:00:16;91648.56;;;15.38;53.39
10958;BME280;5531;42.570;23.676;2023-03-21T12:05:52;91646.63;;;15.63;52.65
10958;BME280;5531;42.570;23.676;2023-03-21T12:08:31;91650.25;;;15.73;51.63
10958;BME280;5531;42.570;23.676;2023-03-21T12:11:07;91650.38;;;15.79;51.63
10958;BME280;5531;42.570;23.676;2023-03-21T12:13:47;91647.34;;;15.87;51.77
10958;BME280;5531;42.570;23.676;2023-03-21T12:16:27;91650.59;;;15.77;51.58
10958;BME280;5531;42.570;23.676;2023-03-21T12:19:16;91642.00;;;15.70;52.49
10958;BME280;5531;42.570;23.676;2023-03-21T12:22:00;91640.88;;;15.66;51.74
10958;BME280;5531;42.570;23.676;2023-03-21T12:24:37;91635.13;;;15.69;51.99
10958;BME280;5531;42.570;23.676;2023-03-21T12:27:16;91635.03;;;15.64;51.97
10958;BME280;5531;42.570;23.676;2023-03-21T12:29:56;91635.16;;;15.57;53.08
10958;BME280;5531;42.570;23.676;2023-03-21T12:32:39;91638.59;;;15.57;52.33
10958;BME280;5531;42.570;23.676;2023-03-21T12:35:24;91635.88;;;15.52;53.31
10958;BME280;5531;42.570;23.676;2023-03-21T12:38:07;91634.31;;;15.68;53.47
10958;BME280;5531;42.570;23.676;2023-03-21T12:40:54;91630.53;;;15.76;52.61
10958;BME280;5531;42.570;23.676;2023-03-21T12:43:35;91625.25;;;15.76;52.10
10958;BME280;5531;42.570;23.676;2023-03-21T12:46:13;91629.00;;;15.80;53.12
10958;BME280;5531;42.570;23.676;2023-03-21T12:48:47;91620.59;;;15.83;51.88
10958;BME280;5531;42.570;23.676;2023-03-21T12:51:21;91615.00;;;15.80;52.86
10958;BME280;5531;42.570;23.676;2023-03-21T12:53:59;91606.97;;;15.74;51.89
10958;BME280;5531;42.570;23.676;2023-03-21T12:56:33;91610.88;;;15.72;53.45
10958;BME280;5531;42.570;23.676;2023-03-21T12:59:12;91606.16;;;15.74;52.63
10958;BME280;5531;42.570;23.676;2023-03-21T13:01:44;91600.22;;;15.67;52.22
10958;BME280;5531;42.570;23.676;2023-03-21T13:04:31;91599.00;;;15.57;53.14
10958;BME280;5531;42.570;23.676;2023-03-21T13:07:06;91607.38;;;15.54;54.03
10958;BME280;5531;42.570;23.676;2023-03-21T13:09:40;91602.47;;;15.58;55.37
10958;BME280;5531;42.570;23.676;2023-03-21T13:15:32;91603.16;;;15.53;54.29
10958;BME280;5531;42.570;23.676;2023-03-21T13:18:15;91605.72;;;15.48;54.49
10958;BME280;5531;42.570;23.676;2023-03-21T13:20:49;91597.78;;;15.48;53.36
10958;BME280;5531;42.570;23.676;2023-03-21T13:23:21;91599.69;;;15.53;53.54
10958;BME280;5531;42.570;23.676;2023-03-21T13:25:54;91596.97;;;15.48;53.12
10958;BME280;5531;42.570;23.676;2023-03-21T13:28:26;91590.81;;;15.42;54.12
10958;BME280;5531;42.570;23.676;2023-03-21T13:31:14;91590.75;;;15.54;53.31
10958;BME280;5531;42.570;23.676;2023-03-21T13:33:45;91590.53;;;15.55;51.12
10958;BME280;5531;42.570;23.676;2023-03-21T13:36:17;91588.03;;;15.49;52.12
10958;BME280;5531;42.570;23.676;2023-03-21T13:38:52;91586.88;;;15.45;52.46
10958;BME280;5531;42.570;23.676;2023-03-21T13:41:28;91589.28;;;15.46;52.20
10958;BME280;5531;42.570;23.676;2023-03-21T13:44:08;91574.59;;;15.50;53.33